createdAt,value
2022-12-11T00:01:52.857Z,-0.16
2022-12-11T00:04:38.476Z,-0.15
2022-12-11T00:07:23.883Z,-0.14
2022-12-11T00:10:11.398Z,-0.13
2022-12-11T00:12:56.652Z,-0.12
2022-12-11T00:15:42.026Z,-0.12
2022-12-11T00:18:27.303Z,-0.11
2022-12-11T00:21:15.167Z,-0.08
2022-12-11T00:24:00.974Z,-0.06
2022-12-11T00:26:46.315Z,-0.06
2022-12-11T00:29:33.203Z,-0.04
2022-12-11T00:32:18.702Z,-0.01
2022-12-11T00:35:04.332Z,0.01
2022-12-11T00:37:49.947Z,0.00
2022-12-11T00:40:36.933Z,0.03
2022-12-11T00:43:22.528Z,0.03
2022-12-11T00:46:08.000Z,-0.03
2022-12-11T00:48:53.787Z,-0.09
2022-12-11T00:51:39.060Z,-0.08
2022-12-11T00:54:24.424Z,-0.10
2022-12-11T00:57:09.928Z,-0.09
2022-12-11T00:59:55.353Z,-0.12
2022-12-11T01:02:40.823Z,-0.14
2022-12-11T01:05:26.772Z,-0.10
2022-12-11T01:08:12.348Z,-0.10
2022-12-11T01:11:10.514Z,-0.11
2022-12-11T01:13:55.905Z,-0.08
2022-12-11T01:16:41.237Z,-0.08
2022-12-11T01:19:26.539Z,-0.08
2022-12-11T01:22:11.689Z,-0.05
2022-12-11T01:24:57.074Z,-0.06
2022-12-11T01:27:42.328Z,-0.05
2022-12-11T01:30:27.925Z,-0.02
2022-12-11T01:33:13.689Z,0.03
2022-12-11T01:35:59.520Z,0.05
2022-12-11T01:38:46.155Z,0.05
2022-12-11T01:41:31.782Z,0.04
2022-12-11T01:44:17.098Z,0.04
2022-12-11T01:47:02.409Z,-0.02
2022-12-11T01:49:47.604Z,-0.04
2022-12-11T01:52:33.654Z,-0.06
2022-12-11T01:55:20.608Z,-0.12
2022-12-11T01:58:07.330Z,-0.20
2022-12-11T02:00:53.624Z,-0.21
2022-12-11T02:03:39.352Z,-0.25
2022-12-11T02:06:30.888Z,-0.25
2022-12-11T02:09:24.305Z,-0.28
2022-12-11T02:12:30.787Z,-0.24
2022-12-11T02:15:31.663Z,-0.20
2022-12-11T02:18:27.405Z,-0.14
2022-12-11T02:21:33.609Z,-0.09
2022-12-11T02:24:31.156Z,-0.05
2022-12-11T02:27:48.906Z,-0.10
2022-12-11T02:30:37.298Z,-0.13
2022-12-11T02:33:33.361Z,-0.15
2022-12-11T02:36:22.747Z,-0.20
2022-12-11T02:39:13.120Z,-0.23
2022-12-11T02:41:59.861Z,-0.24
2022-12-11T02:44:48.077Z,-0.25
2022-12-11T02:47:33.795Z,-0.26
2022-12-11T02:50:23.532Z,-0.20
2022-12-11T02:53:12.390Z,-0.19
2022-12-11T02:56:09.265Z,-0.19
2022-12-11T02:59:09.007Z,-0.19
2022-12-11T03:01:54.553Z,-0.15
2022-12-11T03:04:41.446Z,-0.10
2022-12-11T03:07:31.908Z,-0.10
2022-12-11T03:10:19.189Z,-0.09
2022-12-11T03:13:05.440Z,-0.03
2022-12-11T03:16:09.292Z,0.02
2022-12-11T03:19:02.171Z,0.08
2022-12-11T03:21:58.034Z,0.13
2022-12-11T03:24:43.343Z,0.10
2022-12-11T03:27:59.172Z,0.08
2022-12-11T03:30:46.560Z,0.01
2022-12-11T03:33:37.618Z,-0.01
2022-12-11T03:36:27.361Z,-0.03
2022-12-11T03:39:22.985Z,-0.08
2022-12-11T03:42:12.137Z,-0.13
2022-12-11T03:44:59.068Z,-0.19
2022-12-11T03:47:47.439Z,-0.23
2022-12-11T03:50:35.455Z,-0.20
2022-12-11T03:53:21.816Z,-0.20
2022-12-11T03:56:11.216Z,-0.26
2022-12-11T03:58:56.866Z,-0.25
2022-12-11T04:01:42.516Z,-0.23
2022-12-11T04:04:28.197Z,-0.23
2022-12-11T04:07:13.505Z,-0.29
2022-12-11T04:10:00.329Z,-0.38
2022-12-11T04:12:45.929Z,-0.38
2022-12-11T04:15:31.436Z,-0.43
2022-12-11T04:18:35.319Z,-0.42
2022-12-11T04:21:40.016Z,-0.36
2022-12-11T04:24:25.878Z,-0.36
2022-12-11T04:27:11.225Z,-0.38
2022-12-11T04:29:56.478Z,-0.37
2022-12-11T04:32:41.930Z,-0.36
2022-12-11T04:35:27.246Z,-0.37
2022-12-11T04:38:12.895Z,-0.39
2022-12-11T04:41:03.525Z,-0.41
2022-12-11T04:43:49.203Z,-0.40
2022-12-11T04:46:35.843Z,-0.45
2022-12-11T04:49:21.087Z,-0.57
2022-12-11T04:52:06.470Z,-0.68
2022-12-11T04:54:51.940Z,-0.77
2022-12-11T04:57:37.444Z,-0.86
2022-12-11T05:00:23.246Z,-0.92
2022-12-11T05:03:09.608Z,-0.96
2022-12-11T05:05:55.210Z,-1.01
2022-12-11T05:08:43.003Z,-1.04
2022-12-11T05:11:28.310Z,-1.02
2022-12-11T05:14:14.161Z,-1.00
2022-12-11T05:17:00.070Z,-0.93
2022-12-11T05:19:48.037Z,-0.87
2022-12-11T05:22:33.685Z,-0.86
2022-12-11T05:25:19.321Z,-0.80
2022-12-11T05:28:04.767Z,-0.78
2022-12-11T05:30:58.665Z,-0.80
2022-12-11T05:33:45.454Z,-0.84
2022-12-11T05:36:33.936Z,-0.85
2022-12-11T05:39:19.934Z,-0.85
2022-12-11T05:42:05.622Z,-0.86
2022-12-11T05:44:51.376Z,-0.84
2022-12-11T05:47:36.676Z,-0.85
2022-12-11T05:50:22.058Z,-0.88
2022-12-11T05:53:07.536Z,-0.84
2022-12-11T05:55:52.862Z,-0.82
2022-12-11T05:58:39.013Z,-0.79
2022-12-11T06:01:31.998Z,-0.76
2022-12-11T06:04:17.745Z,-0.78
2022-12-11T06:07:03.575Z,-0.79
2022-12-11T06:09:48.935Z,-0.81
2022-12-11T06:12:34.334Z,-0.84
2022-12-11T06:15:19.563Z,-0.92
2022-12-11T06:18:04.972Z,-1.02
2022-12-11T06:20:50.279Z,-1.09
2022-12-11T06:23:35.775Z,-1.13
2022-12-11T06:26:22.063Z,-1.13
2022-12-11T06:29:10.936Z,-1.14
2022-12-11T06:31:58.796Z,-1.15
2022-12-11T06:34:44.693Z,-1.13
2022-12-11T06:37:29.918Z,-1.08
2022-12-11T06:40:15.842Z,-0.97
2022-12-11T06:43:01.125Z,-0.88
2022-12-11T06:45:46.588Z,-0.81
2022-12-11T06:48:32.308Z,-0.80
2022-12-11T06:51:21.235Z,-0.84
2022-12-11T06:54:06.677Z,-0.84
2022-12-11T06:56:51.942Z,-0.90
2022-12-11T06:59:37.297Z,-0.90
2022-12-11T07:02:23.160Z,-0.92
2022-12-11T07:05:09.382Z,-0.93
2022-12-11T07:07:55.155Z,-0.96
2022-12-11T07:10:41.377Z,-0.95
2022-12-11T07:13:26.719Z,-0.98
2022-12-11T07:16:14.089Z,-0.97
2022-12-11T07:18:59.400Z,-0.98
2022-12-11T07:21:44.674Z,-0.99
2022-12-11T07:24:29.992Z,-0.96
2022-12-11T07:27:15.394Z,-0.91
2022-12-11T07:30:00.841Z,-0.93
2022-12-11T07:32:46.285Z,-0.90
2022-12-11T07:35:33.908Z,-0.90
2022-12-11T07:38:19.277Z,-0.90
2022-12-11T07:41:08.889Z,-0.92
2022-12-11T07:43:55.276Z,-0.95
2022-12-11T07:46:40.803Z,-0.96
2022-12-11T07:49:26.277Z,-0.98
2022-12-11T07:52:11.817Z,-1.02
2022-12-11T07:54:57.604Z,-1.01
2022-12-11T07:57:42.978Z,-0.98
2022-12-11T08:00:28.349Z,-0.99
2022-12-11T08:03:13.707Z,-1.00
2022-12-11T08:05:59.023Z,-1.01
2022-12-11T08:08:44.949Z,-0.98
2022-12-11T08:11:30.836Z,-0.97
2022-12-11T08:14:16.472Z,-0.94
2022-12-11T08:17:02.730Z,-0.91
2022-12-11T08:19:48.299Z,-0.84
2022-12-11T08:22:34.614Z,-0.83
2022-12-11T08:25:19.984Z,-0.78
2022-12-11T08:28:05.470Z,-0.81
2022-12-11T08:30:50.931Z,-0.82
2022-12-11T08:33:37.780Z,-0.82
2022-12-11T08:36:24.619Z,-0.80
2022-12-11T08:39:10.203Z,-0.82
2022-12-11T08:41:57.331Z,-0.85
2022-12-11T08:44:42.755Z,-0.91
2022-12-11T08:47:28.062Z,-0.98
2022-12-11T08:50:13.411Z,-0.99
2022-12-11T08:52:59.207Z,-1.02
2022-12-11T08:55:44.647Z,-1.03
2022-12-11T08:58:30.254Z,-0.98
2022-12-11T09:01:19.300Z,-0.95
2022-12-11T09:04:05.063Z,-0.93
2022-12-11T09:06:50.467Z,-0.92
2022-12-11T09:09:35.757Z,-0.95
2022-12-11T09:12:21.255Z,-0.95
2022-12-11T09:15:07.191Z,-0.90
2022-12-11T09:17:52.698Z,-0.88
2022-12-11T09:20:38.170Z,-0.83
2022-12-11T09:23:23.584Z,-0.84
2022-12-11T09:26:13.697Z,-0.89
2022-12-11T09:28:59.422Z,-0.94
2022-12-11T09:31:46.537Z,-0.96
2022-12-11T09:34:32.439Z,-0.93
2022-12-11T09:37:18.450Z,-0.86
2022-12-11T09:40:07.796Z,-0.77
2022-12-11T09:43:01.277Z,-0.69
2022-12-11T09:45:47.381Z,-0.66
2022-12-11T09:48:35.315Z,-0.61
2022-12-11T09:51:44.090Z,-0.56
2022-12-11T09:54:29.918Z,-0.58
2022-12-11T09:57:45.863Z,-0.56
2022-12-11T10:00:40.326Z,-0.52
2022-12-11T10:03:55.109Z,-0.51
2022-12-11T10:07:09.030Z,-0.48
2022-12-11T10:10:12.077Z,-0.43
2022-12-11T10:13:26.739Z,-0.40
2022-12-11T10:16:37.572Z,-0.32
2022-12-11T10:19:32.107Z,-0.30
2022-12-11T10:22:23.792Z,-0.38
2022-12-11T10:25:21.928Z,-0.39
2022-12-11T10:28:28.091Z,-0.38
2022-12-11T10:31:20.027Z,-0.36
2022-12-11T10:34:15.051Z,-0.35
2022-12-11T10:37:02.305Z,-0.32
2022-12-11T10:39:47.750Z,-0.30
2022-12-11T10:42:33.100Z,-0.26
2022-12-11T10:45:18.625Z,-0.23
2022-12-11T10:48:11.380Z,-0.19
2022-12-11T10:51:07.247Z,-0.13
2022-12-11T10:54:06.915Z,-0.07
2022-12-11T10:56:53.294Z,-0.03
2022-12-11T10:59:38.852Z,-0.02
2022-12-11T11:02:32.038Z,0.05
2022-12-11T11:05:30.536Z,0.08
2022-12-11T11:08:19.460Z,0.07
2022-12-11T11:11:04.982Z,0.08
2022-12-11T11:13:51.408Z,0.11
2022-12-11T11:16:39.283Z,0.08
2022-12-11T11:19:27.713Z,0.04
2022-12-11T11:22:18.248Z,0.01
2022-12-11T11:25:05.234Z,-0.05
2022-12-11T11:27:55.059Z,-0.07
2022-12-11T11:30:42.387Z,-0.02
2022-12-11T11:33:29.487Z,0.09
2022-12-11T11:36:21.759Z,0.19
2022-12-11T11:39:23.440Z,0.31
2022-12-11T11:42:18.779Z,0.41
2022-12-11T11:45:16.985Z,0.49
2022-12-11T11:48:16.630Z,0.56
2022-12-11T11:51:13.907Z,0.67
2022-12-11T11:54:03.533Z,0.80
2022-12-11T11:56:54.342Z,0.89
2022-12-11T11:59:54.030Z,0.98
2022-12-11T12:02:41.713Z,1.07
2022-12-11T12:05:59.306Z,1.14
2022-12-11T12:08:54.644Z,1.21
2022-12-11T12:12:10.703Z,1.25
2022-12-11T12:15:14.823Z,1.23
2022-12-11T12:18:25.249Z,1.27
2022-12-11T12:21:35.706Z,1.32
2022-12-11T12:24:43.362Z,1.39
2022-12-11T12:31:06.062Z,1.45
2022-12-11T12:34:05.817Z,1.50
2022-12-11T12:36:56.232Z,1.55
2022-12-11T12:39:53.578Z,1.62
2022-12-11T12:43:04.459Z,1.74
2022-12-11T12:46:11.464Z,1.88
2022-12-11T12:48:59.263Z,2.07
2022-12-11T12:51:46.073Z,2.21
2022-12-11T12:54:33.604Z,2.39
2022-12-11T12:57:19.820Z,2.44
2022-12-11T13:00:12.793Z,2.50
2022-12-11T13:03:13.511Z,2.55
2022-12-11T13:06:06.332Z,2.53
2022-12-11T13:08:52.759Z,2.33
2022-12-11T13:11:38.315Z,2.27
2022-12-11T13:14:28.143Z,2.12
2022-12-11T13:17:22.777Z,2.02
2022-12-11T13:20:20.510Z,1.87
2022-12-11T13:23:06.145Z,1.78
2022-12-11T13:26:03.106Z,1.71
2022-12-11T13:28:51.135Z,1.63
2022-12-11T13:31:38.332Z,1.52
2022-12-11T13:34:24.550Z,1.45
2022-12-11T13:37:55.463Z,1.38
2022-12-11T13:40:43.095Z,1.36
2022-12-11T13:43:31.364Z,1.32
2022-12-11T13:46:24.677Z,1.23
2022-12-11T13:49:22.167Z,1.11
2022-12-11T13:52:08.269Z,0.97
2022-12-11T13:54:55.753Z,0.84
2022-12-11T13:57:46.452Z,0.77
2022-12-11T14:00:33.063Z,0.77
2022-12-11T14:03:19.201Z,0.78
2022-12-11T14:06:05.107Z,0.77
2022-12-11T14:08:55.035Z,0.79
2022-12-11T14:11:42.786Z,0.80
2022-12-11T14:14:49.868Z,0.77
2022-12-11T14:17:35.470Z,0.72
2022-12-11T14:20:24.205Z,0.64
2022-12-11T14:23:22.345Z,0.60
2022-12-11T14:26:20.548Z,0.47
2022-12-11T14:29:06.732Z,0.37
2022-12-11T14:31:53.605Z,0.21
2022-12-11T14:34:45.589Z,0.12
2022-12-11T14:37:32.029Z,0.11
2022-12-11T14:40:20.327Z,0.14
2022-12-11T14:43:14.417Z,0.01
2022-12-11T14:46:07.511Z,-0.07
2022-12-11T14:49:03.462Z,-0.10
2022-12-11T14:51:50.755Z,-0.04
2022-12-11T14:54:41.198Z,-0.01
2022-12-11T14:57:30.711Z,-0.02
2022-12-11T15:00:22.691Z,-0.07
2022-12-11T15:03:18.088Z,-0.11
2022-12-11T15:06:22.823Z,-0.18
2022-12-11T15:09:17.781Z,-0.27
2022-12-11T15:12:29.960Z,-0.33
2022-12-11T15:15:18.038Z,-0.40
2022-12-11T15:18:14.058Z,-0.45
2022-12-11T15:21:03.764Z,-0.49
2022-12-11T15:23:54.810Z,-0.52
2022-12-11T15:26:45.428Z,-0.57
2022-12-11T15:29:39.771Z,-0.57
2022-12-11T15:32:25.733Z,-0.61
2022-12-11T15:35:26.289Z,-0.66
2022-12-11T15:38:28.509Z,-0.68
2022-12-11T15:41:16.851Z,-0.64
2022-12-11T15:44:04.651Z,-0.56
2022-12-11T15:46:50.802Z,-0.48
2022-12-11T15:49:36.295Z,-0.43
2022-12-11T15:52:21.771Z,-0.39
2022-12-11T15:55:07.516Z,-0.37
2022-12-11T15:57:56.480Z,-0.43
2022-12-11T16:00:42.154Z,-0.52
2022-12-11T16:03:27.622Z,-0.58
2022-12-11T16:06:13.961Z,-0.65
2022-12-11T16:08:59.360Z,-0.68
2022-12-11T16:11:44.751Z,-0.64
2022-12-11T16:14:30.567Z,-0.62
2022-12-11T16:17:16.451Z,-0.60
2022-12-11T16:20:01.761Z,-0.53
2022-12-11T16:22:47.249Z,-0.48
2022-12-11T16:25:32.950Z,-0.45
2022-12-11T16:28:21.227Z,-0.41
2022-12-11T16:31:14.136Z,-0.39
2022-12-11T16:33:59.965Z,-0.37
2022-12-11T16:36:45.343Z,-0.37
2022-12-11T16:39:31.345Z,-0.32
2022-12-11T16:42:17.790Z,-0.30
2022-12-11T16:45:12.796Z,-0.29
2022-12-11T16:47:58.271Z,-0.29
2022-12-11T16:50:43.783Z,-0.28
2022-12-11T16:53:29.308Z,-0.28
2022-12-11T16:56:14.647Z,-0.25
2022-12-11T16:59:04.531Z,-0.23
2022-12-11T17:01:50.776Z,-0.22
2022-12-11T17:04:37.849Z,-0.19
2022-12-11T17:07:23.203Z,-0.20
2022-12-11T17:10:09.092Z,-0.22
2022-12-11T17:12:54.402Z,-0.22
2022-12-11T17:15:41.528Z,-0.28
2022-12-11T17:18:27.148Z,-0.27
2022-12-11T17:21:18.033Z,-0.25
2022-12-11T17:24:03.346Z,-0.24
2022-12-11T17:26:49.096Z,-0.22
2022-12-11T17:29:34.826Z,-0.21
2022-12-11T17:32:20.251Z,-0.22
2022-12-11T17:35:06.281Z,-0.19
2022-12-11T17:37:51.738Z,-0.20
2022-12-11T17:40:43.035Z,-0.19
2022-12-11T17:43:28.620Z,-0.19
2022-12-11T17:46:14.707Z,-0.20
2022-12-11T17:49:03.364Z,-0.19
2022-12-11T17:51:48.719Z,-0.19
2022-12-11T17:54:34.065Z,-0.22
2022-12-11T17:57:19.947Z,-0.25
2022-12-11T18:00:06.950Z,-0.27
2022-12-11T18:02:57.517Z,-0.24
2022-12-11T18:05:44.447Z,-0.27
2022-12-11T18:08:30.221Z,-0.26
2022-12-11T18:11:18.509Z,-0.23
2022-12-11T18:14:05.508Z,-0.23
2022-12-11T18:16:52.627Z,-0.22
2022-12-11T18:19:42.795Z,-0.20
2022-12-11T18:22:31.432Z,-0.20
2022-12-11T18:25:17.503Z,-0.19
2022-12-11T18:28:03.149Z,-0.21
2022-12-11T18:30:48.657Z,-0.20
2022-12-11T18:33:37.217Z,-0.18
2022-12-11T18:36:22.808Z,-0.17
2022-12-11T18:39:08.490Z,-0.19
2022-12-11T18:42:30.737Z,-0.18
2022-12-11T18:45:00.129Z,-0.21
2022-12-11T18:47:45.641Z,-0.21
2022-12-11T18:50:30.945Z,-0.22
2022-12-11T18:53:17.996Z,-0.22
2022-12-11T18:56:13.654Z,-0.23
2022-12-11T18:58:59.315Z,-0.22
2022-12-11T19:01:44.756Z,-0.22
2022-12-11T19:04:30.734Z,-0.22
2022-12-11T19:07:16.102Z,-0.20
2022-12-11T19:10:01.610Z,-0.15
2022-12-11T19:12:47.265Z,-0.16
2022-12-11T19:15:32.568Z,-0.23
2022-12-11T19:18:18.031Z,-0.20
2022-12-11T19:21:09.541Z,-0.25
2022-12-11T19:23:55.056Z,-0.24
2022-12-11T19:26:40.968Z,-0.29
2022-12-11T19:29:29.362Z,-0.34
2022-12-11T19:32:14.933Z,-0.32
2022-12-11T19:35:00.408Z,-0.34
2022-12-11T19:37:45.987Z,-0.34
2022-12-11T19:40:31.655Z,-0.33
2022-12-11T19:43:17.223Z,-0.38
2022-12-11T19:46:08.167Z,-0.38
2022-12-11T19:48:55.992Z,-0.34
2022-12-11T19:51:42.791Z,-0.31
2022-12-11T19:54:28.178Z,-0.37
2022-12-11T19:57:13.739Z,-0.39
2022-12-11T20:00:01.061Z,-0.41
2022-12-11T20:02:46.730Z,-0.39
2022-12-11T20:05:31.940Z,-0.37
2022-12-11T20:11:23.070Z,-0.40
2022-12-11T20:14:09.376Z,-0.40
2022-12-11T20:17:13.819Z,-0.41
2022-12-11T20:19:59.567Z,-0.42
2022-12-11T20:22:44.845Z,-0.42
2022-12-11T20:25:30.424Z,-0.42
2022-12-11T20:28:15.783Z,-0.40
2022-12-11T20:31:14.859Z,-0.39
2022-12-11T20:34:05.035Z,-0.42
2022-12-11T20:36:52.725Z,-0.41
2022-12-11T20:39:38.322Z,-0.41
2022-12-11T20:42:23.954Z,-0.41
2022-12-11T20:45:10.039Z,-0.37
2022-12-11T20:47:55.796Z,-0.41
2022-12-11T20:50:41.265Z,-0.38
2022-12-11T20:53:28.523Z,-0.38
2022-12-11T20:56:18.193Z,-0.38
2022-12-11T20:59:03.516Z,-0.41
2022-12-11T21:01:49.666Z,-0.40
2022-12-11T21:04:42.586Z,-0.39
2022-12-11T21:07:28.396Z,-0.40
2022-12-11T21:10:14.035Z,-0.44
2022-12-11T21:12:59.675Z,-0.42
2022-12-11T21:15:46.134Z,-0.41
2022-12-11T21:18:31.532Z,-0.44
2022-12-11T21:21:17.910Z,-0.47
2022-12-11T21:24:04.011Z,-0.45
2022-12-11T21:26:50.289Z,-0.45
2022-12-11T21:29:35.997Z,-0.46
2022-12-11T21:32:21.559Z,-0.51
2022-12-11T21:35:08.377Z,-0.50
2022-12-11T21:37:53.941Z,-0.47
2022-12-11T21:40:39.325Z,-0.46
2022-12-11T21:43:24.984Z,-0.49
2022-12-11T21:46:15.522Z,-0.49
2022-12-11T21:49:01.157Z,-0.53
2022-12-11T21:51:47.668Z,-0.55
2022-12-11T21:54:33.349Z,-0.55
2022-12-11T21:57:24.368Z,-0.56
2022-12-11T22:00:12.646Z,-0.54
2022-12-11T22:02:58.032Z,-0.58
2022-12-11T22:05:43.258Z,-0.62
2022-12-11T22:08:28.627Z,-0.61
2022-12-11T22:11:14.361Z,-0.63
2022-12-11T22:13:59.957Z,-0.68
2022-12-11T22:16:46.110Z,-0.67
2022-12-11T22:19:32.872Z,-0.64
2022-12-11T22:22:19.383Z,-0.61
2022-12-11T22:25:07.956Z,-0.66
2022-12-11T22:27:53.467Z,-0.67
2022-12-11T22:30:39.834Z,-0.76
2022-12-11T22:33:25.180Z,-0.80
2022-12-11T22:36:11.408Z,-0.82
2022-12-11T22:38:57.096Z,-0.83
2022-12-11T22:41:43.292Z,-0.89
2022-12-11T22:44:28.855Z,-0.83
2022-12-11T22:47:14.262Z,-0.85
2022-12-11T22:49:59.689Z,-0.82
2022-12-11T22:52:45.612Z,-0.83
2022-12-11T22:55:31.823Z,-0.84
2022-12-11T22:58:21.616Z,-0.81
2022-12-11T23:01:17.509Z,-0.81
2022-12-11T23:04:03.405Z,-0.84
2022-12-11T23:06:48.760Z,-0.83
2022-12-11T23:09:34.309Z,-0.79
2022-12-11T23:12:19.728Z,-0.79
2022-12-11T23:15:06.856Z,-0.77
2022-12-11T23:17:52.568Z,-0.83
2022-12-11T23:20:38.022Z,-0.89
2022-12-11T23:23:23.714Z,-0.91
2022-12-11T23:26:11.593Z,-0.89
2022-12-11T23:28:59.204Z,-0.82
2022-12-11T23:31:44.900Z,-0.85
2022-12-11T23:34:30.430Z,-0.87
2022-12-11T23:37:15.883Z,-0.91
2022-12-11T23:40:01.327Z,-0.88
2022-12-11T23:42:46.645Z,-0.86
2022-12-11T23:45:32.039Z,-0.86
2022-12-11T23:48:18.195Z,-0.82
2022-12-11T23:51:05.187Z,-0.83
2022-12-11T23:53:51.099Z,-0.79
2022-12-11T23:56:36.853Z,-0.80
2022-12-11T23:59:22.166Z,-0.85
